Time;durP1;ratioP1;P1;durP2;ratioP2;P2;SDS_P1;SDS_P2;PMS_P1;PMS_P2;Temp;Humidity;BMP_temperature;BMP_pressure;BME280_temperature;BME280_humidity;BME280_pressure;Samples;Min_cycle;Max_cycle;Signal;HPM_P1;HPM_P2
2021/03/21 12:58:02;;;;;;;36.00;9.88;;;10.30;99.90;;;10.91;55.46;102484.22;5136787;22;20354;-77
2021/03/21 13:00:32;;;;;;;38.75;10.13;;;11.00;99.90;;;11.05;55.22;102506.56;5110310;28;20058;-85
2021/03/21 13:03:04;;;;;;;40.10;9.95;;;11.00;99.90;;;10.88;55.20;102500.00;5109993;28;20039;-77
2021/03/21 13:05:37;;;;;;;38.45;10.10;;;10.90;99.90;;;10.77;55.60;102517.44;5110050;28;20048;-80
2021/03/21 13:08:07;;;;;;;36.25;9.02;;;10.80;99.90;;;10.77;55.79;102481.28;5110096;28;20102;-76
2021/03/21 13:10:35;;;;;;;39.50;8.82;;;10.80;99.90;;;10.82;55.75;102502.53;5108777;28;20043;-79
2021/03/21 13:13:06;;;;;;;45.42;9.68;;;10.80;99.90;;;10.47;55.26;102498.28;5109860;28;20462;-77
2021/03/21 13:15:34;;;;;;;38.90;9.50;;;10.60;99.90;;;10.64;55.50;102494.22;5109759;28;20043;-85
2021/03/21 13:18:02;;;;;;;33.75;9.15;;;10.50;99.90;;;10.68;55.88;102496.94;5109255;28;20094;-79
2021/03/21 13:20:29;;;;;;;40.33;9.90;;;10.60;99.90;;;10.72;55.29;102496.16;5110091;28;20043;-75
2021/03/21 13:22:57;;;;;;;31.20;9.10;;;10.60;99.90;;;10.61;54.87;102497.69;5109794;28;20108;-75
2021/03/21 13:25:31;;;;;;;36.03;9.18;;;10.50;99.90;;;10.46;53.52;102455.03;5108073;28;20044;-81
2021/03/21 13:28:03;;;;;;;35.88;8.38;;;10.60;99.90;;;10.66;53.30;102487.22;5108953;28;20047;-77
2021/03/21 13:30:35;;;;;;;39.53;9.25;;;10.60;99.90;;;10.62;53.62;102482.72;5109668;28;20039;-82
2021/03/21 13:33:05;;;;;;;32.42;8.98;;;10.50;99.90;;;10.62;54.21;102477.41;5109671;28;20044;-77
2021/03/21 13:35:33;;;;;;;29.43;8.33;;;10.60;99.90;;;10.62;54.52;102488.00;5109385;28;20542;-83
2021/03/21 13:38:01;;;;;;;41.10;9.23;;;10.60;99.90;;;10.69;53.88;102479.31;5109336;28;20047;-77
2021/03/21 13:40:32;;;;;;;28.92;8.30;;;10.60;99.90;;;10.58;54.37;102479.13;5109527;28;20500;-79
2021/03/21 13:43:02;;;;;;;37.47;9.45;;;10.50;99.90;;;10.26;54.03;102418.44;5109666;28;20055;-75
2021/03/21 13:45:34;;;;;;;36.43;8.33;;;10.50;99.90;;;10.40;54.67;102464.56;5109586;28;20062;-79
2021/03/21 13:48:03;;;;;;;30.23;8.90;;;10.50;99.90;;;10.62;54.78;102473.03;5109498;28;20768;-76
2021/03/21 13:50:32;;;;;;;28.70;8.23;;;10.50;99.90;;;10.84;54.76;102475.25;5109308;28;20048;-78
2021/03/21 13:53:00;;;;;;;35.33;10.68;;;10.70;99.90;;;10.89;54.23;102460.34;5108953;28;20078;-79
2021/03/21 13:55:33;;;;;;;29.25;8.45;;;10.70;99.90;;;10.87;53.85;102459.44;5109205;28;20036;-78
2021/03/21 13:58:01;;;;;;;30.00;8.38;;;10.80;99.90;;;10.86;54.16;102451.44;5108885;28;20488;-77
2021/03/21 14:00:32;;;;;;;33.67;9.30;;;10.80;99.90;;;10.73;54.49;102452.97;5109198;28;20470;-78
2021/03/21 14:03:01;;;;;;;42.72;10.18;;;10.70;99.90;;;10.55;54.18;102452.56;5109210;28;20048;-78
2021/03/21 14:05:30;;;;;;;31.40;11.32;;;10.50;99.90;;;10.61;54.98;102451.81;5109093;28;20097;-78
2021/03/21 14:07:58;;;;;;;39.40;11.25;;;10.50;99.90;;;10.60;56.14;102452.69;5103527;28;20404;-79
2021/03/21 14:10:29;;;;;;;40.30;11.75;;;10.50;99.90;;;10.72;56.55;102452.94;5095554;28;20079;-79
2021/03/21 14:13:01;;;;;;;36.97;11.10;;;10.60;99.90;;;10.80;56.93;102449.56;5095289;28;20040;-77
2021/03/21 14:15:38;;;;;;;34.83;9.85;;;10.70;99.90;;;10.76;56.48;102460.09;5095211;28;20040;-78
2021/03/21 14:18:07;;;;;;;40.20;9.95;;;10.70;99.90;;;10.61;56.88;102463.28;5093899;28;20074;-79
2021/03/21 14:20:37;;;;;;;35.15;10.00;;;10.50;99.90;;;10.70;56.85;102471.41;5094919;28;20115;-79
2021/03/21 14:23:12;;;;;;;32.20;10.85;;;10.60;99.90;;;10.69;56.44;102469.63;5095142;28;20032;-79
2021/03/21 14:25:41;;;;;;;38.20;9.23;;;10.60;99.90;;;10.51;57.03;102469.25;5095289;28;20057;-73
2021/03/21 14:28:10;;;;;;;43.97;9.35;;;10.40;99.90;;;10.46;57.33;102457.69;5095149;28;20075;-74
2021/03/21 14:30:39;;;;;;;36.50;9.90;;;10.40;99.90;;;10.55;56.73;102457.00;5093483;28;20051;-74
2021/03/21 14:33:07;;;;;;;32.72;10.45;;;10.50;99.90;;;10.62;57.11;102458.91;5095288;28;20047;-75
2021/03/21 14:35:39;;;;;;;35.75;9.75;;;10.50;99.90;;;10.55;56.21;102457.88;5110872;28;20040;-74
2021/03/21 14:38:09;;;;;;;31.77;9.75;;;10.40;99.90;;;10.64;55.99;102466.03;5094781;28;20052;-77
2021/03/21 14:40:36;;;;;;;28.98;9.05;;;10.50;99.90;;;10.77;56.08;102467.16;5094753;28;20108;-71
2021/03/21 14:43:07;;;;;;;29.20;9.90;;;10.60;99.90;;;10.76;55.76;102465.38;5093226;28;20491;-71
2021/03/21 14:45:35;;;;;;;39.80;9.48;;;10.60;99.90;;;10.71;55.88;102459.97;5094534;28;20427;-69
2021/03/21 14:48:06;;;;;;;36.97;9.07;;;10.60;99.90;;;9.49;57.31;102351.44;5094742;28;20081;-70
2021/03/21 14:50:34;;;;;;;39.10;10.43;;;10.20;99.90;;;10.13;57.54;102466.59;5094637;28;20078;-72
2021/03/21 14:53:01;;;;;;;36.75;8.32;;;10.00;99.90;;;10.20;57.42;102442.09;5094477;28;20047;-71
2021/03/21 14:55:37;;;;;;;32.22;9.57;;;10.10;99.90;;;10.19;57.08;102443.84;5094372;28;20043;-73
2021/03/21 14:58:05;;;;;;;35.85;8.85;;;10.10;99.90;;;10.19;56.77;102442.94;5093960;28;20056;-72
2021/03/21 15:00:35;;;;;;;36.58;9.55;;;10.10;99.90;;;9.97;56.18;102431.84;5094529;28;20085;-71
2021/03/21 15:03:08;;;;;;;35.40;9.98;;;10.00;99.90;;;10.21;56.69;102438.59;5094627;28;20419;-72
2021/03/21 15:05:38;;;;;;;42.77;11.03;;;10.10;99.90;;;9.60;56.63;102318.25;5094214;28;20131;-72
2021/03/21 15:08:27;;;;;;;29.25;9.27;;;10.10;99.90;;;10.40;56.44;102436.38;5094162;28;20044;-75
2021/03/21 15:10:59;;;;;;;34.72;8.80;;;10.30;99.90;;;10.37;56.11;102448.66;5094130;28;20149;-72
2021/03/21 15:13:29;;;;;;;39.88;9.65;;;10.30;99.90;;;10.51;55.58;102428.69;5093838;28;20119;-71
2021/03/21 15:15:57;;;;;;;28.13;8.55;;;10.40;99.90;;;10.54;54.53;102431.38;5093563;28;20047;-70
2021/03/21 15:18:26;;;;;;;30.63;8.10;;;10.40;99.90;;;9.97;54.75;102354.31;5094048;28;20040;-76
2021/03/21 15:20:58;;;;;;;32.78;8.93;;;10.40;99.90;;;10.35;55.10;102423.94;5092754;28;20048;-70
2021/03/21 15:23:30;;;;;;;37.70;8.35;;;10.30;99.90;;;10.19;56.34;102414.75;5094115;28;20053;-73
2021/03/21 15:25:57;;;;;;;31.80;8.57;;;10.30;99.90;;;10.22;57.50;102435.09;5093920;28;20040;-73
2021/03/21 15:28:35;;;;;;;43.97;9.52;;;10.20;99.90;;;9.82;56.57;102336.38;5094063;28;20117;-71
2021/03/21 15:31:06;;;;;;;32.83;9.05;;;10.30;99.90;;;10.33;56.36;102428.28;5093258;28;20481;-69
2021/03/21 15:33:36;;;;;;;31.25;8.65;;;10.20;99.90;;;10.34;56.15;102438.00;5093797;28;20102;-69
2021/03/21 15:36:06;;;;;;;36.90;9.60;;;10.20;99.90;;;10.23;55.95;102415.72;5093762;28;20074;-67
2021/03/21 15:38:51;;;;;;;35.08;9.68;;;10.20;99.90;;;10.45;55.64;102434.72;5093455;28;20056;-69
2021/03/21 15:41:21;;;;;;;25.55;8.23;;;10.40;99.90;;;10.35;56.47;102442.44;5093585;28;20451;-68
2021/03/21 15:43:50;;;;;;;31.60;8.70;;;10.30;99.90;;;10.48;56.24;102441.84;5093553;28;20048;-70
2021/03/21 15:46:19;;;;;;;35.20;9.80;;;10.30;99.90;;;10.34;56.55;102432.69;5093502;28;20288;-74
2021/03/21 15:48:48;;;;;;;34.92;8.75;;;10.30;99.90;;;10.32;56.62;102418.56;5093425;28;20457;-70
2021/03/21 15:51:17;;;;;;;34.63;9.15;;;10.30;99.90;;;10.31;57.48;102438.84;5093320;28;20516;-71
2021/03/21 15:53:44;;;;;;;33.15;8.75;;;10.30;99.90;;;10.28;57.91;102432.59;5093375;28;20051;-73
2021/03/21 15:56:16;;;;;;;34.13;9.65;;;10.30;99.90;;;10.24;58.23;102428.97;5093183;28;20040;-71
2021/03/21 15:58:44;;;;;;;39.20;9.35;;;10.30;99.90;;;10.24;57.61;102436.91;5091863;28;20135;-77
2021/03/21 16:01:13;;;;;;;42.83;10.77;;;10.20;99.90;;;10.31;57.87;102427.34;5093307;28;20058;-77
2021/03/21 16:03:41;;;;;;;34.72;9.75;;;10.20;99.90;;;10.26;58.42;102445.75;5093143;28;20054;-71
2021/03/21 16:06:11;;;;;;;32.38;9.27;;;10.20;99.90;;;10.39;57.89;102444.28;5093004;28;20056;-70
2021/03/21 16:08:38;;;;;;;35.30;8.73;;;10.30;99.90;;;10.24;57.64;102439.53;5093074;28;20398;-67
2021/03/21 16:11:06;;;;;;;30.50;8.45;;;10.20;99.90;;;10.24;58.22;102438.69;5093077;28;20047;-69
2021/03/21 16:13:35;;;;;;;32.17;7.75;;;10.10;99.90;;;10.25;57.75;102441.34;5092945;28;20094;-72
2021/03/21 16:16:03;;;;;;;33.83;8.75;;;10.20;99.90;;;10.01;58.38;102433.72;5093123;28;20032;-73
2021/03/21 16:18:31;;;;;;;29.02;8.75;;;10.00;99.90;;;10.01;58.64;102432.81;5091660;28;20085;-73
2021/03/21 16:20:59;;;;;;;34.80;8.77;;;9.90;99.90;;;9.91;58.95;102438.78;5092684;28;20048;-68
2021/03/21 16:23:28;;;;;;;33.60;8.20;;;9.90;99.90;;;9.96;58.79;102435.38;5092779;28;20044;-74
2021/03/21 16:25:56;;;;;;;33.20;9.52;;;9.80;99.90;;;9.99;58.83;102423.94;5093050;28;20469;-71
2021/03/21 16:28:24;;;;;;;28.63;8.88;;;9.90;99.90;;;10.11;58.95;102442.78;5092677;28;20516;-73
2021/03/21 16:30:52;;;;;;;29.42;8.57;;;10.00;99.90;;;10.03;59.04;102442.56;5092632;28;20055;-74
2021/03/21 16:33:23;;;;;;;32.88;9.27;;;10.00;99.90;;;9.90;59.03;102407.91;5092520;28;20549;-79
2021/03/21 16:35:55;;;;;;;37.70;9.15;;;10.00;99.90;;;9.94;59.52;102447.66;5092652;28;20077;-76
2021/03/21 16:38:24;;;;;;;27.33;9.48;;;9.90;99.90;;;9.98;59.36;102438.03;5092851;28;20369;-73
2021/03/21 16:41:00;;;;;;;34.58;9.57;;;9.80;99.90;;;10.09;58.71;102432.97;5092618;28;20036;-76
2021/03/21 16:43:34;;;;;;;47.80;9.95;;;9.90;99.90;;;9.95;59.70;102432.66;5091020;28;20492;-75
2021/03/21 16:46:03;;;;;;;37.03;9.43;;;9.90;99.90;;;9.95;59.89;102432.66;5092523;28;20097;-76
2021/03/21 16:48:31;;;;;;;33.40;8.18;;;9.90;99.90;;;9.80;59.98;102420.00;5090892;28;20065;-76
2021/03/21 16:51:00;;;;;;;35.83;8.77;;;9.80;99.90;;;9.93;60.13;102460.81;5092226;28;20056;-76
2021/03/21 16:53:29;;;;;;;34.40;8.95;;;9.80;99.90;;;10.06;60.08;102446.16;5092486;28;20047;-77
2021/03/21 16:55:59;;;;;;;29.75;9.43;;;9.90;99.90;;;9.99;59.97;102437.16;5092261;28;20044;-76
2021/03/21 16:58:27;;;;;;;36.78;9.18;;;9.90;99.90;;;10.06;59.99;102439.13;5091842;28;20062;-76
2021/03/21 17:00:55;;;;;;;30.60;8.35;;;9.90;99.90;;;9.98;59.76;102444.22;5092261;28;20044;-75
2021/03/21 17:03:23;;;;;;;30.52;8.52;;;9.90;99.90;;;10.00;59.44;102431.03;5091285;28;20159;-76
2021/03/21 17:05:52;;;;;;;32.20;8.63;;;9.90;99.90;;;10.09;59.56;102436.53;5092014;28;20058;-76
2021/03/21 17:08:21;;;;;;;35.88;8.55;;;10.00;99.90;;;10.05;59.61;102432.03;5090319;28;20044;-78
2021/03/21 17:10:49;;;;;;;32.45;10.07;;;9.90;99.90;;;10.16;59.72;102442.91;5090799;28;20064;-71
2021/03/21 17:13:20;;;;;;;34.05;8.90;;;10.00;99.90;;;9.98;59.87;102446.88;5090696;28;20048;-81
2021/03/21 17:15:49;;;;;;;30.92;8.55;;;9.90;99.90;;;9.67;59.77;102448.75;5092086;28;20059;-81
2021/03/21 17:18:18;;;;;;;31.98;9.40;;;9.60;99.90;;;9.76;59.55;102463.06;5092051;28;20048;-78
2021/03/21 17:20:46;;;;;;;31.73;8.68;;;9.60;99.90;;;9.68;60.13;102454.06;5092371;28;20416;-84
2021/03/21 17:23:17;;;;;;;39.10;9.52;;;9.60;99.90;;;9.73;60.23;102447.16;5090901;28;20044;-80
2021/03/21 17:25:50;;;;;;;26.20;8.75;;;9.70;99.90;;;9.65;60.29;102451.34;5092329;28;20122;-86
2021/03/21 17:28:19;;;;;;;27.17;9.35;;;9.50;99.90;;;8.91;59.76;102300.72;5093608;28;20043;-78
2021/03/21 17:30:47;;;;;;;26.10;8.63;;;9.60;99.90;;;9.71;60.66;102458.53;5093041;28;20048;-74
2021/03/21 17:33:16;;;;;;;44.75;9.60;;;9.60;99.90;;;9.80;60.03;102470.22;5092147;28;20135;-80
2021/03/21 17:35:46;;;;;;;29.60;9.30;;;9.60;99.90;;;9.77;60.53;102458.69;5092054;28;20071;-72
2021/03/21 17:38:14;;;;;;;31.13;9.43;;;9.60;99.90;;;9.70;60.57;102455.00;5091861;28;20427;-77
2021/03/21 17:40:43;;;;;;;37.20;8.80;;;9.60;99.90;;;9.63;60.94;102462.72;5091900;28;20120;-74
2021/03/21 17:43:21;;;;;;;35.00;9.50;;;9.50;99.90;;;9.80;60.54;102461.38;5092832;28;20055;-73
2021/03/21 17:45:52;;;;;;;24.73;7.80;;;9.60;99.90;;;9.70;60.91;102455.00;5096042;28;20055;-74
2021/03/21 17:48:20;;;;;;;36.10;10.80;;;9.60;99.90;;;9.75;60.84;102456.00;5095918;28;20040;-75
2021/03/21 17:50:52;;;;;;;36.58;10.77;;;9.60;99.90;;;9.71;60.77;102443.59;5095803;28;20032;-73
2021/03/21 17:53:31;;;;;;;32.97;8.68;;;9.70;99.90;;;9.99;60.61;102463.59;5095818;28;20071;-74
2021/03/21 17:56:00;;;;;;;30.38;8.82;;;9.80;99.90;;;9.95;60.50;102446.78;5095420;28;20143;-74
2021/03/21 17:58:27;;;;;;;39.30;9.10;;;9.90;99.90;;;9.67;60.75;102415.28;5093699;28;20492;-75
2021/03/21 18:00:56;;;;;;;33.50;8.73;;;9.90;99.90;;;9.98;60.80;102470.66;5095674;28;20134;-79
2021/03/21 18:03:23;;;;;;;33.75;11.00;;;9.90;99.90;;;10.03;60.50;102469.00;5095298;28;20079;-76
2021/03/21 18:05:51;;;;;;;34.97;9.88;;;9.90;99.90;;;9.74;60.96;102477.09;5095386;28;20105;-78
2021/03/21 18:08:19;;;;;;;30.08;9.20;;;9.70;99.90;;;9.76;61.60;102475.38;5095497;28;20094;-82
2021/03/21 18:10:49;;;;;;;39.08;10.98;;;9.70;99.90;;;9.78;61.38;102471.94;5095354;28;20156;-81
2021/03/21 18:13:18;;;;;;;33.00;11.25;;;9.60;99.90;;;9.86;61.08;102482.69;5095517;28;20052;-75
2021/03/21 18:15:46;;;;;;;29.75;9.85;;;9.70;99.90;;;9.76;61.08;102489.50;5095123;28;20048;-72
2021/03/21 18:18:14;;;;;;;37.60;11.30;;;9.60;99.90;;;9.68;61.42;102459.34;5093679;28;20048;-74
2021/03/21 18:20:42;;;;;;;41.20;10.52;;;9.70;99.90;;;9.30;61.30;102404.66;5095056;28;20032;-76
2021/03/21 18:23:11;;;;;;;31.27;10.48;;;9.60;99.90;;;9.83;61.26;102482.63;5095027;28;20058;-72
2021/03/21 18:25:39;;;;;;;35.08;8.95;;;9.70;99.90;;;9.78;60.89;102477.22;5095006;28;20043;-79
2021/03/21 18:28:07;;;;;;;33.47;7.97;;;9.70;99.90;;;9.80;60.79;102487.81;5093805;28;20048;-77
2021/03/21 18:30:37;;;;;;;29.63;8.00;;;9.70;99.90;;;9.75;61.11;102492.09;5094904;28;20052;-77
2021/03/21 18:33:08;;;;;;;34.28;8.10;;;9.70;99.90;;;9.76;60.81;102489.50;5093889;28;20408;-80
2021/03/21 18:35:40;;;;;;;30.65;8.48;;;9.70;99.90;;;9.76;61.12;102499.16;5094927;28;20496;-75
2021/03/21 18:38:07;;;;;;;;;;;9.70;99.90;;;9.63;61.52;102463.63;5094152;28;20044;-75
2021/03/21 18:40:35;;;;;;;34.53;9.00;;;9.70;99.90;;;9.65;62.03;102488.34;5094910;28;19928;-73
2021/03/21 18:43:02;;;;;;;34.45;8.32;;;9.60;99.90;;;9.66;62.22;102484.81;5093468;28;20052;-74
2021/03/21 18:45:37;;;;;;;31.50;8.15;;;9.50;99.90;;;9.62;63.27;102490.88;5093781;28;20039;-80
2021/03/21 18:48:06;;;;;;;43.78;9.00;;;9.40;99.90;;;9.67;62.96;102489.28;5093681;28;20048;-90
2021/03/21 18:50:35;;;;;;;25.92;8.15;;;9.50;99.90;;;9.69;63.32;102506.06;5094809;28;20052;-84
2021/03/21 18:53:06;;;;;;;32.57;9.43;;;9.50;99.90;;;9.73;62.98;102507.94;5094882;28;20044;-84
2021/03/21 18:55:34;;;;;;;29.67;8.48;;;9.60;99.90;;;9.69;63.01;102497.22;5094421;28;20282;-79
2021/03/21 18:58:02;;;;;;;32.83;8.82;;;9.60;99.90;;;9.71;62.99;102507.00;5094780;28;20051;-85
2021/03/21 19:00:34;;;;;;;32.65;8.52;;;9.60;99.90;;;9.69;63.46;102518.38;5094590;28;20079;-88
2021/03/21 19:03:02;;;;;;;30.55;8.93;;;9.50;99.90;;;9.77;63.39;102512.44;5094610;28;20048;-79
2021/03/21 19:05:30;;;;;;;35.55;9.40;;;9.60;99.90;;;9.71;63.27;102508.72;5092990;28;20071;-93
2021/03/21 19:07:57;;;;;;;28.00;8.35;;;9.60;99.90;;;9.69;63.65;102506.06;5094423;28;20047;-79
2021/03/21 19:10:29;;;;;;;41.88;9.48;;;9.50;99.90;;;9.76;63.37;102504.44;5094172;28;20039;-76
2021/03/21 19:12:57;;;;;;;35.65;9.13;;;9.60;99.90;;;9.75;63.74;102514.16;5094559;28;20044;-77
2021/03/21 19:15:25;;;;;;;27.67;8.20;;;9.60;99.90;;;9.55;64.07;102474.84;5094316;28;20122;-85
2021/03/21 19:17:54;;;;;;;26.48;8.90;;;9.70;99.90;;;9.79;63.99;102510.69;5109943;28;20386;-85
2021/03/21 19:20:27;;;;;;;34.90;9.57;;;9.70;99.90;;;9.64;64.48;102515.59;5094311;28;20044;-84
2021/03/21 19:22:55;;;;;;;36.20;8.88;;;9.60;99.90;;;9.75;64.41;102515.88;5094057;28;20036;-77
2021/03/21 19:25:26;;;;;;;31.42;8.20;;;9.60;99.90;;;9.70;64.87;102512.22;5093923;28;20474;-72
2021/03/21 19:27:54;;;;;;;30.05;8.80;;;9.60;99.90;;;9.49;64.74;102488.78;5094127;28;20047;-75
2021/03/21 19:30:25;;;;;;;27.80;7.97;;;9.50;99.90;;;9.57;64.87;102512.75;5094010;28;20089;-72
2021/03/21 19:32:53;;;;;;;39.17;9.73;;;9.40;99.90;;;9.62;65.08;102514.66;5093918;28;20036;-75
2021/03/21 19:35:24;;;;;;;32.20;8.43;;;9.50;99.90;;;9.64;64.91;102512.94;5093762;28;20047;-73
2021/03/21 19:37:52;;;;;;;34.53;8.52;;;9.50;99.90;;;9.60;65.22;102516.38;5094022;28;20047;-74
2021/03/21 19:40:25;;;;;;;34.10;8.52;;;9.50;99.90;;;9.64;64.87;102526.16;5093849;28;20068;-70
2021/03/21 19:42:55;;;;;;;39.10;9.90;;;9.50;99.90;;;9.63;65.38;102524.41;5093740;28;20112;-72
2021/03/21 19:45:26;;;;;;;33.67;9.38;;;9.40;99.90;;;9.58;65.17;102520.72;5093642;28;20450;-71
2021/03/21 19:47:55;;;;;;;;;;;9.40;99.90;;;9.59;65.38;102521.63;5093970;28;20050;-71
2021/03/21 19:50:25;;;;;;;30.60;8.07;;;9.40;99.90;;;9.42;65.76;102522.94;5093634;28;19920;-72
2021/03/21 19:52:52;;;;;;;32.08;8.18;;;9.30;99.90;;;9.41;66.25;102518.47;5093928;28;20044;-71
2021/03/21 19:55:22;;;;;;;31.80;8.18;;;9.20;99.90;;;9.28;66.29;102498.78;5093482;28;20047;-72
2021/03/21 19:57:50;;;;;;;28.88;7.93;;;9.30;99.90;;;9.46;66.94;102519.53;5093275;28;20052;-74
2021/03/21 20:00:20;;;;;;;32.95;7.30;;;9.30;99.90;;;9.48;67.07;102521.34;5093607;28;20047;-76
2021/03/21 20:02:47;;;;;;;30.85;8.55;;;9.30;99.90;;;9.56;66.79;102522.44;5093480;28;20079;-70
2021/03/21 20:05:21;;;;;;;25.02;7.95;;;9.40;99.90;;;9.57;66.79;102532.16;5093017;28;20112;-78
2021/03/21 20:07:49;;;;;;;27.17;8.73;;;9.50;99.90;;;9.58;67.11;102518.06;5093227;28;20048;-72
2021/03/21 20:10:21;;;;;;;33.42;8.48;;;9.50;99.90;;;9.44;67.23;102501.00;5093459;28;20074;-82
2021/03/21 20:12:50;;;;;;;29.35;6.88;;;9.50;99.90;;;9.58;67.27;102525.13;5093450;28;20526;-77
2021/03/21 20:15:21;;;;;;;25.08;7.85;;;9.40;99.90;;;9.53;66.49;102526.75;5093372;28;20040;-84
2021/03/21 20:17:48;;;;;;;;;;;9.40;99.90;;;9.51;66.35;102526.72;5092516;28;20524;-83
2021/03/21 20:20:20;;;;;;;23.98;7.68;;;9.40;99.90;;;9.43;67.19;102533.53;5091799;28;20362;-77
2021/03/21 20:22:48;;;;;;;25.90;8.10;;;9.30;99.90;;;9.36;67.19;102521.03;5093171;28;20078;-79
2021/03/21 20:25:23;;;;;;;25.27;8.30;;;9.30;99.90;;;9.40;67.14;102525.53;5093343;28;20040;-80
2021/03/21 20:27:50;;;;;;;31.48;7.97;;;9.30;99.90;;;9.45;67.70;102537.09;5093227;28;20495;-92
2021/03/21 20:30:21;;;;;;;31.85;8.27;;;9.30;99.90;;;9.48;67.81;102553.06;5092975;28;20133;-91
2021/03/21 20:32:48;;;;;;;28.90;8.80;;;9.30;99.90;;;9.37;68.32;102530.72;5092896;28;20508;-75
2021/03/21 20:35:22;;;;;;;24.70;8.32;;;9.30;99.90;;;9.51;68.35;102533.72;5092858;28;20512;-74
2021/03/21 20:37:50;;;;;;;37.50;9.38;;;9.30;99.90;;;9.48;68.43;102536.31;5092665;28;20044;-72
2021/03/21 20:40:23;;;;;;;24.05;8.50;;;9.30;99.90;;;9.53;68.57;102542.59;5093285;28;20097;-77
2021/03/21 20:42:50;;;;;;;29.90;8.68;;;9.30;99.90;;;9.61;68.19;102541.94;5092811;28;20051;-70
2021/03/21 20:45:19;;;;;;;37.30;9.05;;;9.40;99.90;;;9.72;67.99;102548.41;5092802;28;20081;-70
2021/03/21 20:47:47;;;;;;;32.70;8.70;;;9.50;99.90;;;9.74;67.65;102546.69;5092755;28;20051;-71
2021/03/21 20:50:16;;;;;;;30.25;8.82;;;9.50;99.90;;;9.78;67.93;102545.91;5092617;28;20040;-69
2021/03/21 20:52:44;;;;;;;35.70;9.23;;;9.60;99.90;;;9.64;68.20;102518.25;5092755;28;20512;-70
2021/03/21 20:55:19;;;;;;;28.27;8.57;;;9.60;99.90;;;9.73;68.25;102542.28;5092782;28;20166;-73
2021/03/21 20:57:47;;;;;;;31.08;8.90;;;9.50;99.90;;;9.76;68.41;102539.69;5092596;28;20040;-72
2021/03/21 21:00:21;;;;;;;32.92;9.45;;;9.60;99.90;;;9.81;68.24;102529.25;5090978;28;20052;-73
2021/03/21 21:02:49;;;;;;;29.90;8.93;;;9.60;99.90;;;9.88;68.18;102533.84;5091196;28;20048;-71
2021/03/21 21:05:17;;;;;;;32.35;9.57;;;9.60;99.90;;;9.80;68.60;102538.03;5092659;28;20044;-71
2021/03/21 21:07:46;;;;;;;30.90;9.27;;;9.60;99.90;;;9.67;68.83;102526.25;5092481;28;20036;-73
2021/03/21 21:10:16;;;;;;;28.30;8.93;;;9.50;99.90;;;9.71;69.08;102532.50;5092556;28;20048;-73
2021/03/21 21:13:00;;;;;;;26.27;9.30;;;9.50;99.90;;;9.79;68.31;102531.84;5092489;28;20089;-72
2021/03/21 21:15:30;;;;;;;25.73;9.00;;;9.60;99.90;;;9.84;68.37;102531.97;5090945;28;20047;-75
2021/03/21 21:18:00;;;;;;;32.72;9.85;;;9.70;99.90;;;9.88;68.50;102521.50;5093208;28;20122;-74
2021/03/21 21:20:33;;;;;;;30.00;9.52;;;9.70;99.90;;;9.91;68.59;102523.34;5096591;28;20040;-74
2021/03/21 21:23:02;;;;;;;26.65;9.02;;;9.80;99.90;;;9.76;69.17;102520.31;5096521;28;20043;-69
2021/03/21 21:25:30;;;;;;;29.23;10.05;;;9.60;99.90;;;9.54;69.62;102497.72;5096364;28;20064;-79
2021/03/21 21:27:57;;;;;;;29.77;9.32;;;9.50;99.90;;;9.67;69.44;102522.72;5096178;28;20079;-72
2021/03/21 21:30:26;;;;;;;31.50;9.65;;;9.50;99.90;;;9.67;69.88;102526.25;5096507;28;20043;-74
2021/03/21 21:32:58;;;;;;;38.53;11.32;;;9.50;99.90;;;9.69;69.97;102521.00;5096356;28;20054;-74
2021/03/21 21:35:29;;;;;;;27.85;9.65;;;9.50;99.90;;;9.71;69.57;102517.56;5096227;28;20052;-73
2021/03/21 21:37:56;;;;;;;36.53;10.07;;;9.50;99.90;;;9.64;69.68;102493.59;5096341;28;20397;-73
2021/03/21 21:40:24;;;;;;;27.75;9.90;;;9.50;99.90;;;9.70;69.48;102523.69;5095967;28;20045;-78
2021/03/21 21:43:09;;;;;;;34.63;10.52;;;9.60;99.90;;;9.76;69.57;102521.19;5095940;28;20486;-70
2021/03/21 21:45:37;;;;;;;29.60;10.45;;;9.50;99.90;;;9.65;70.29;102520.03;5095358;28;20054;-72
2021/03/21 21:48:08;;;;;;;34.47;10.63;;;9.50;99.90;;;9.75;70.39;102506.22;5096051;28;20040;-74
2021/03/21 21:50:36;;;;;;;30.13;10.70;;;9.60;99.90;;;9.63;70.05;102499.72;5096011;28;20257;-72
2021/03/21 21:53:05;;;;;;;36.55;11.75;;;9.60;99.90;;;9.61;69.72;102477.66;5095594;28;20040;-86
2021/03/21 21:55:38;;;;;;;39.97;11.77;;;9.60;99.90;;;9.76;70.00;102505.34;5095918;28;20040;-71
2021/03/21 21:58:06;;;;;;;29.17;10.93;;;9.60;99.90;;;9.62;70.88;102516.44;5095815;28;20101;-72
2021/03/21 22:00:34;;;;;;;38.50;11.32;;;9.50;99.90;;;9.70;70.85;102505.19;5093807;28;20048;-71
2021/03/21 22:03:02;;;;;;;29.15;11.55;;;9.50;99.90;;;9.58;71.29;102501.34;5094305;28;20067;-84
2021/03/21 22:05:31;;;;;;;29.80;12.10;;;9.40;99.90;;;9.62;71.08;102505.88;5095554;28;20046;-77
2021/03/21 22:07:58;;;;;;;33.97;11.73;;;9.50;99.90;;;9.48;70.96;102468.53;5095949;28;20040;-87
2021/03/21 22:10:32;;;;;;;42.05;12.25;;;9.50;99.90;;;9.70;70.78;102501.66;5095413;28;20508;-76
2021/03/21 22:12:59;;;;;;;32.30;11.38;;;9.50;99.90;;;9.67;70.82;102499.84;5095630;28;20044;-69
2021/03/21 22:15:30;;;;;;;36.80;11.93;;;9.50;99.90;;;9.70;70.71;102489.34;5095472;28;20059;-77
2021/03/21 22:17:58;;;;;;;;;;;9.60;99.90;;;9.75;70.78;102492.09;5095806;28;20089;-75
2021/03/21 22:20:31;;;;;;;37.72;11.95;;;9.60;99.90;;;8.97;71.01;102362.47;5095908;28;20015;-82
2021/03/21 22:23:00;;;;;;;39.97;12.15;;;9.60;99.90;;;9.25;72.11;102434.47;5095253;28;20112;-76
2021/03/21 22:25:30;;;;;;;36.75;13.02;;;9.40;99.90;;;9.65;71.71;102483.06;5095414;28;20511;-74
2021/03/21 22:27:58;;;;;;;46.38;14.15;;;9.50;99.90;;;9.68;71.66;102475.19;5095263;28;20040;-77
2021/03/21 22:30:28;;;;;;;42.58;13.02;;;9.60;99.90;;;8.99;71.45;102387.16;5094669;28;20106;-79
2021/03/21 22:33:02;;;;;;;39.65;14.48;;;9.40;99.90;;;9.63;72.16;102487.41;5095483;28;20093;-82
2021/03/21 22:35:32;;;;;;;43.30;14.10;;;9.40;99.90;;;9.75;71.99;102490.38;5095273;28;20063;-82
2021/03/21 22:38:02;;;;;;;42.88;13.73;;;9.50;99.90;;;9.66;71.92;102492.75;5093776;28;20500;-82
2021/03/21 22:40:36;;;;;;;43.03;13.52;;;9.50;99.90;;;9.61;72.19;102467.97;5095165;28;20040;-82
2021/03/21 22:43:04;;;;;;;41.40;13.65;;;9.60;99.90;;;9.40;72.36;102441.03;5095044;28;20039;-82
2021/03/21 22:45:33;;;;;;;40.85;12.68;;;9.50;99.90;;;9.63;72.18;102500.63;5095081;28;20075;-82
2021/03/21 22:48:03;;;;;;;43.95;13.57;;;9.40;99.90;;;9.35;72.80;102471.69;5095031;28;20501;-82
2021/03/21 22:50:32;;;;;;;38.30;13.05;;;9.30;99.90;;;9.42;73.05;102497.44;5095001;28;20036;-83
2021/03/21 22:53:00;;;;;;;42.92;14.30;;;9.20;99.90;;;9.59;73.00;102500.50;5094879;28;20127;-81
2021/03/21 22:55:28;;;;;;;38.55;13.85;;;9.30;99.90;;;9.47;72.58;102484.31;5094641;28;20055;-83
2021/03/21 22:57:56;;;;;;;39.63;14.07;;;9.30;99.90;;;9.58;72.79;102509.28;5094710;28;20040;-83
2021/03/21 23:00:29;;;;;;;42.47;13.43;;;9.30;99.90;;;9.51;72.60;102500.28;5094807;28;20055;-82
2021/03/21 23:02:57;;;;;;;;;;;9.30;99.90;;;9.71;72.26;102493.78;5095196;28;20040;-83
2021/03/21 23:05:28;;;;;;;31.60;12.27;;;9.40;99.90;;;9.35;72.22;102420.66;5093374;28;20027;-82
2021/03/21 23:07:58;;;;;;;33.28;13.05;;;9.50;99.90;;;9.75;71.78;102486.81;5094590;28;20135;-82
2021/03/21 23:10:29;;;;;;;37.15;12.20;;;9.50;99.90;;;9.71;71.83;102484.97;5094668;28;20052;-80
2021/03/21 23:12:57;;;;;;;35.95;13.32;;;9.40;99.90;;;9.66;71.18;102495.41;5094445;28;20484;-82
2021/03/21 23:15:24;;;;;;;41.10;13.45;;;9.40;99.90;;;9.81;71.31;102490.50;5094320;28;20572;-82
2021/03/21 23:17:53;;;;;;;31.08;11.95;;;9.50;99.90;;;9.78;70.58;102471.94;5094279;28;20463;-82
2021/03/21 23:20:25;;;;;;;29.67;11.38;;;9.70;99.90;;;10.01;69.74;102499.81;5094288;28;20040;-83
2021/03/21 23:22:53;;;;;;;33.38;11.77;;;9.70;99.90;;;9.82;69.01;102491.38;5094507;28;20048;-82